Time;durP1;ratioP1;P1;durP2;ratioP2;P2;SDS_P1;SDS_P2;PMS_P1;PMS_P2;Temp;Humidity;BMP_temperature;BMP_pressure;BME280_temperature;BME280_humidity;BME280_pressure;Samples;Min_cycle;Max_cycle;Signal;HPM_P1;HPM_P2
2022/11/28 00:00:56;;;;;;;0.73;0.63;;;;;;;13.61;62.93;99251.91;2074737;28;20045;-48
2022/11/28 00:01:58;;;;;;;;;;;;;;;13.45;63.45;99241.13;2075752;28;20520;-47
2022/11/28 00:02:59;;;;;;;1.17;0.82;;;;;;;13.50;63.28;99247.66;2081588;28;19942;-47
2022/11/28 00:04:02;;;;;;;0.70;0.52;;;;;;;13.55;63.23;99242.69;2074564;28;20056;-47
2022/11/28 00:05:03;;;;;;;0.80;0.50;;;;;;;13.57;63.14;99251.38;2074891;28;20041;-47
2022/11/28 00:06:05;;;;;;;;;;;;;;;13.45;63.32;99244.63;2078454;28;20060;-48
2022/11/28 00:07:05;;;;;;;0.63;0.63;;;;;;;13.48;63.49;99238.97;2081532;28;19924;-49
2022/11/28 00:08:07;;;;;;;;;;;;;;;13.40;63.47;99239.75;2077422;28;20045;-47
2022/11/28 00:09:08;;;;;;;0.70;0.68;;;;;;;13.47;63.37;99239.97;2075162;28;19928;-46
2022/11/28 00:10:11;;;;;;;;;;;;;;;13.37;63.64;99228.56;2078813;28;20040;-47
2022/11/28 00:11:14;;;;;;;0.40;0.40;;;;;;;13.44;63.55;99229.63;2074337;28;19924;-47
2022/11/28 00:12:16;;;;;;;0.85;0.70;;;;;;;13.49;63.29;99230.00;2080781;28;20049;-47
2022/11/28 00:13:17;;;;;;;1.02;0.80;;;;;;;13.52;63.39;99226.19;2081855;28;20056;-47
2022/11/28 00:14:19;;;;;;;;;;;;;;;13.44;63.63;99228.78;2082906;28;20041;-47
2022/11/28 00:15:20;;;;;;;0.65;0.65;;;;;;;13.48;63.30;99228.31;2079454;28;20561;-48
2022/11/28 00:16:22;;;;;;;;;;;;;;;13.41;63.38;99222.78;2082694;28;20037;-49
2022/11/28 00:17:23;;;;;;;1.65;0.65;;;;;;;13.47;63.35;99218.66;2081725;28;19928;-48
2022/11/28 00:18:25;;;;;;;;;;;;;;;13.38;63.67;99215.09;2083148;28;20420;-48
2022/11/28 00:19:27;;;;;;;0.70;0.68;;;;;;;13.43;63.54;99219.97;2082239;28;19931;-49
2022/11/28 00:20:29;;;;;;;0.73;0.32;;;;;;;13.49;63.34;99207.84;2072327;28;20769;-50
2022/11/28 00:21:32;;;;;;;0.55;0.55;;;;;;;13.54;63.13;99209.06;2080746;28;20630;-48
2022/11/28 00:22:33;;;;;;;0.60;0.50;;;;;;;13.54;63.17;99203.72;2081808;28;20045;-50
2022/11/28 00:23:34;;;;;;;;;;;;;;;13.40;63.47;99204.28;2074282;28;20052;-47
2022/11/28 00:24:35;;;;;;;0.60;0.60;;;;;;;13.45;63.40;99203.81;2078261;28;19924;-47
2022/11/28 00:25:38;;;;;;;;;;;;;;;13.38;63.49;99200.94;2082086;28;20044;-47
2022/11/28 00:26:40;;;;;;;0.30;0.30;;;;;;;13.45;63.42;99201.16;2079026;28;19924;-47
2022/11/28 00:27:42;;;;;;;1.33;0.52;;;;;;;13.49;63.04;99195.34;2079630;28;20041;-46
2022/11/28 00:28:43;;;;;;;0.60;0.60;;;;;;;13.53;63.25;99195.88;2082187;28;20056;-47
2022/11/28 00:29:45;;;;;;;;;;;;;;;13.41;63.30;99190.81;2081490;28;20055;-49
2022/11/28 00:30:45;;;;;;;0.70;0.60;;;;;;;13.47;63.21;99197.34;2074825;28;19932;-48
2022/11/28 00:31:47;;;;;;;;;;;;;;;13.37;63.65;99191.25;2081237;28;20049;-48
2022/11/28 00:32:48;;;;;;;1.00;0.65;;;;;;;13.44;63.39;99192.31;2080708;28;19935;-49
2022/11/28 00:33:50;;;;;;;;;;;;;;;13.36;63.43;99195.75;2083037;28;20143;-46
2022/11/28 00:34:51;;;;;;;0.60;0.50;;;;;;;13.42;63.46;99191.63;2081461;28;19929;-47
2022/11/28 00:35:57;;;;;;;;;;;;;;;13.38;63.42;99195.63;2083607;28;20045;-48
2022/11/28 00:36:59;;;;;;;0.43;0.43;;;;;;;13.44;63.51;99186.16;2076984;28;19921;-50
2022/11/28 00:38:00;;;;;;;0.60;0.60;;;;;;;13.48;63.03;99177.69;2080422;28;20053;-46
2022/11/28 00:39:01;;;;;;;;;;;;;;;13.38;63.44;99188.44;2081209;28;20055;-47
2022/11/28 00:40:02;;;;;;;0.50;0.40;;;;;;;13.43;63.30;99174.66;2081048;28;19925;-46
2022/11/28 00:41:06;;;;;;;;;;;;;;;13.36;63.58;99178.94;2077008;28;20056;-48
2022/11/28 00:42:07;;;;;;;0.80;0.60;;;;;;;13.41;63.37;99179.31;2080281;28;19921;-47
2022/11/28 00:43:10;;;;;;;;;;;;;;;13.35;63.72;99182.63;2081554;28;20055;-46
2022/11/28 00:44:12;;;;;;;0.52;0.47;;;;;;;13.41;63.49;99184.66;2082289;28;21497;-48
2022/11/28 00:45:14;;;;;;;0.80;0.70;;;;;;;13.43;63.42;99174.66;2080979;28;20053;-47
2022/11/28 00:46:15;;;;;;;0.80;0.50;;;;;;;13.48;63.04;99176.84;2080302;28;20045;-48
2022/11/28 00:47:17;;;;;;;0.38;0.38;;;;;;;13.50;62.99;99172.19;2076308;28;20134;-47
2022/11/28 00:48:18;;;;;;;0.70;0.70;;;;;;;13.51;63.18;99171.19;2080780;28;20500;-47
2022/11/28 00:49:20;;;;;;;;;;;;;;;13.40;63.35;99170.50;2081734;28;20049;-47
2022/11/28 00:50:20;;;;;;;0.43;0.43;;;;;;;13.41;63.37;99161.50;2081851;28;19924;-47
2022/11/28 00:51:23;;;;;;;;;;;;;;;13.32;63.75;99166.94;2080572;28;20052;-48
2022/11/28 00:52:25;;;;;;;0.85;0.50;;;;;;;13.39;63.42;99157.31;2081562;28;19959;-48
2022/11/28 00:53:25;;;;;;;0.50;0.50;;;;;;;13.43;63.24;99153.34;2082439;28;20862;-48
2022/11/28 00:54:27;;;;;;;;;;;;;;;13.35;63.44;99156.78;2081452;28;20057;-47
2022/11/28 00:55:28;;;;;;;0.70;0.70;;;;;;;13.39;63.52;99154.66;2082803;28;19929;-45
2022/11/28 00:56:32;;;;;;;;;;;;;;;13.34;63.33;99154.28;2081697;28;20051;-46
2022/11/28 00:57:33;;;;;;;0.68;0.68;;;;;;;13.39;63.38;99151.97;2081222;28;19935;-45
2022/11/28 00:58:35;;;;;;;;;;;;;;;13.33;63.74;99158.78;2083054;28;20037;-46
2022/11/28 00:59:36;;;;;;;1.20;0.40;;;;;;;13.40;63.46;99151.84;2080483;28;19929;-45
2022/11/28 01:00:38;;;;;;;;;;;;;;;13.34;63.43;99148.94;2082608;28;20051;-48
2022/11/28 01:01:42;;;;;;;1.00;0.47;;;;;;;13.40;63.39;99146.50;2081735;28;19925;-47
2022/11/28 01:02:44;;;;;;;1.05;0.50;;;;;;;13.44;63.35;99148.84;2082563;28;20099;-46
2022/11/28 01:03:46;;;;;;;0.55;0.55;;;;;;;13.45;63.29;99139.84;2082824;28;20558;-46
2022/11/28 01:04:47;;;;;;;0.50;0.50;;;;;;;13.48;63.06;99148.38;2083368;28;20052;-47
2022/11/28 01:05:48;;;;;;;0.68;0.38;;;;;;;13.50;62.97;99148.22;2080217;28;20068;-47
2022/11/28 01:06:50;;;;;;;;;;;;;;;13.39;63.28;99146.66;2084445;28;20421;-46
2022/11/28 01:07:51;;;;;;;0.63;0.40;;;;;;;13.43;63.20;99145.38;2083589;28;19928;-46
2022/11/28 01:08:53;;;;;;;;;;;;;;;13.36;63.49;99147.81;2084913;28;20132;-46
2022/11/28 01:09:55;;;;;;;0.85;0.45;;;;;;;13.39;63.34;99149.31;2084205;28;20384;-46
2022/11/28 01:10:57;;;;;;;0.50;0.50;;;;;;;13.41;63.29;99142.00;2083405;28;20059;-49
2022/11/28 01:11:59;;;;;;;1.10;0.75;;;;;;;13.45;63.22;99147.84;2084364;28;20056;-46
2022/11/28 01:13:01;;;;;;;0.68;0.68;;;;;;;13.47;63.33;99148.53;2083509;28;20114;-46
2022/11/28 01:14:02;;;;;;;0.30;0.30;;;;;;;13.49;62.70;99144.72;2082568;28;20064;-47
2022/11/28 01:15:04;;;;;;;0.57;0.55;;;;;;;13.47;63.05;99140.53;2075303;28;20078;-47
2022/11/28 01:16:06;;;;;;;0.82;0.63;;;;;;;13.48;62.99;99143.03;2080252;28;20690;-48
2022/11/28 01:17:08;;;;;;;0.73;0.65;;;;;;;13.49;62.95;99146.56;2076118;28;20535;-46
2022/11/28 01:18:09;;;;;;;0.50;0.50;;;;;;;13.49;63.04;99142.06;2080364;28;20063;-48
2022/11/28 01:19:12;;;;;;;;;;;;;;;13.35;63.39;99132.81;2077958;28;20964;-47
2022/11/28 01:20:13;;;;;;;0.63;0.63;;;;;;;13.38;63.17;99143.16;2083253;28;19921;-47
2022/11/28 01:21:15;;;;;;;;;;;;;;;13.30;63.68;99139.59;2079965;28;20139;-45
2022/11/28 01:22:16;;;;;;;0.85;0.80;;;;;;;13.35;63.51;99139.97;2078593;28;19921;-47
2022/11/28 01:23:18;;;;;;;;;;;;;;;13.29;63.56;99138.78;2075661;28;20253;-45
2022/11/28 01:24:20;;;;;;;0.93;0.60;;;;;;;13.34;63.35;99141.78;2077362;28;21744;-47
2022/11/28 01:25:21;;;;;;;0.38;0.38;;;;;;;13.40;63.26;99132.34;2076001;28;20579;-46
2022/11/28 01:26:23;;;;;;;;;;;;;;;13.32;63.43;99137.63;2075664;28;20067;-48
2022/11/28 01:27:25;;;;;;;0.45;0.32;;;;;;;13.37;63.35;99137.97;2075459;28;20011;-47
2022/11/28 01:28:28;;;;;;;0.40;0.40;;;;;;;13.41;63.28;99139.34;2079113;28;20049;-46
2022/11/28 01:29:28;;;;;;;0.43;0.30;;;;;;;13.44;63.08;99136.38;2076822;28;20053;-45
2022/11/28 01:30:30;;;;;;;;;;;;;;;13.32;63.60;99141.13;2082759;28;20680;-47
2022/11/28 01:31:31;;;;;;;0.45;0.38;;;;;;;13.36;63.34;99139.81;2078305;28;20676;-46
2022/11/28 01:32:33;;;;;;;;;;;;;;;13.26;63.62;99140.91;2077900;28;20099;-48
2022/11/28 01:33:34;;;;;;;0.70;0.70;;;;;;;13.32;63.52;99142.97;2081115;28;19925;-46
2022/11/28 01:34:36;;;;;;;0.70;0.70;;;;;;;13.37;63.40;99143.31;2083767;28;20064;-47
2022/11/28 01:35:37;;;;;;;1.92;0.80;;;;;;;13.43;63.20;99145.38;2082779;28;20417;-46
2022/11/28 01:36:38;;;;;;;;;;;;;;;13.32;63.41;99142.97;2084023;28;20059;-47
2022/11/28 01:37:39;;;;;;;0.70;0.55;;;;;;;13.36;63.37;99139.81;2082686;28;19921;-48
2022/11/28 01:38:41;;;;;;;;;;;;;;;13.29;63.52;99135.25;2084175;28;20877;-45
2022/11/28 01:39:42;;;;;;;0.47;0.30;;;;;;;13.34;63.62;99132.97;2081633;28;19924;-45
2022/11/28 01:40:44;;;;;;;;;;;;;;;13.27;63.36;99131.94;2075479;28;20037;-47
2022/11/28 01:41:46;;;;;;;1.25;0.60;;;;;;;13.33;63.53;99131.31;2068407;28;19932;-46
2022/11/28 01:42:48;;;;;;;0.47;0.47;;;;;;;13.38;63.14;99132.50;2077416;28;20037;-47
2022/11/28 01:44:02;;;;;;;1.30;0.65;;;;;;;13.39;63.11;99128.84;2074950;28;20531;-47
2022/11/28 01:45:13;;;;;;;1.42;0.80;;;;;;;13.40;63.15;99127.03;2081622;28;20080;-45
2022/11/28 01:46:15;;;;;;;0.90;0.55;;;;;;;13.40;63.13;99127.03;2075921;28;20044;-47
2022/11/28 01:47:20;;;;;;;0.98;0.70;;;;;;;13.41;63.03;99126.84;2082569;28;20037;-47
2022/11/28 01:48:26;;;;;;;0.50;0.50;;;;;;;13.41;63.07;99128.69;2081258;28;20045;-46
2022/11/28 01:49:31;;;;;;;0.73;0.50;;;;;;;13.44;62.92;99128.38;2083141;28;20512;-46
2022/11/28 01:50:36;;;;;;;0.52;0.52;;;;;;;13.44;62.84;99124.88;2082615;28;20059;-47
2022/11/28 01:51:39;;;;;;;0.63;0.50;;;;;;;13.45;62.94;99123.88;2082596;28;20053;-46
2022/11/28 01:52:45;;;;;;;1.65;0.73;;;;;;;13.39;63.09;99126.16;2082741;28;20053;-48
2022/11/28 01:53:47;;;;;;;0.30;0.30;;;;;;;13.41;63.01;99123.34;2083231;28;20044;-45
2022/11/28 01:54:53;;;;;;;0.63;0.63;;;;;;;13.41;62.98;99126.03;2082778;28;20052;-50
2022/11/28 01:55:58;;;;;;;0.30;0.30;;;;;;;13.40;62.90;99117.19;2081394;28;20061;-47
2022/11/28 01:57:03;;;;;;;1.08;0.40;;;;;;;13.43;62.94;99124.03;2072785;28;20048;-45
2022/11/28 01:58:06;;;;;;;0.68;0.68;;;;;;;13.41;62.82;99113.53;2081676;28;20057;-45
2022/11/28 01:59:11;;;;;;;0.68;0.63;;;;;;;13.42;62.96;99122.34;2081671;28;20045;-47
2022/11/28 02:00:15;;;;;;;0.43;0.43;;;;;;;13.42;62.99;99122.34;2083399;28;20057;-46
2022/11/28 02:01:18;;;;;;;0.52;0.30;;;;;;;13.43;62.92;99116.06;2082199;28;20052;-47
2022/11/28 02:02:25;;;;;;;1.05;0.73;;;;;;;13.40;63.00;99108.38;2083134;28;20056;-46
2022/11/28 02:03:33;;;;;;;0.50;0.47;;;;;;;13.41;63.17;99107.38;2083182;28;20749;-48
2022/11/28 02:04:34;;;;;;;0.68;0.57;;;;;;;13.38;63.03;99107.69;2082891;28;20866;-46
2022/11/28 02:05:36;;;;;;;;;;;;;;;13.28;63.27;99106.97;2081610;28;20132;-47
2022/11/28 02:06:37;;;;;;;0.63;0.50;;;;;;;13.31;63.38;99106.63;2074690;28;19925;-48
2022/11/28 02:07:40;;;;;;;;;;;;;;;13.23;63.58;99109.22;2079494;28;20049;-45
2022/11/28 02:08:40;;;;;;;0.55;0.40;;;;;;;13.29;63.43;99105.94;2081641;28;19932;-48
2022/11/28 02:09:42;;;;;;;;;;;;;;;13.19;63.58;99109.53;2082270;28;20044;-46
2022/11/28 02:11:00;;;;;;;0.60;0.60;;;;;;;13.26;63.48;99100.94;2083892;28;19921;-48
2022/11/28 02:12:23;;;;;;;0.63;0.60;;;;;;;13.30;63.29;99104.97;2076911;28;20053;-46
2022/11/28 02:13:38;;;;;;;0.75;0.50;;;;;;;13.30;63.50;99103.16;2079511;28;20056;-47
2022/11/28 02:15:12;;;;;;;0.50;0.50;;;;;;;13.30;63.41;99099.66;2081668;28;20049;-46
2022/11/28 02:16:31;;;;;;;0.40;0.40;;;;;;;13.31;63.33;99102.13;2075273;28;21930;-47
2022/11/28 02:17:44;;;;;;;0.90;0.85;;;;;;;13.32;63.19;99100.34;2070990;28;20059;-47
2022/11/28 02:19:02;;;;;;;0.40;0.40;;;;;;;13.34;63.08;99095.66;2080752;28;20072;-47
2022/11/28 02:20:50;;;;;;;0.50;0.50;;;;;;;13.29;63.22;99100.63;2081951;28;20460;-47
2022/11/28 02:22:01;;;;;;;1.05;0.80;;;;;;;13.30;63.20;99102.31;2081753;28;20056;-46
2022/11/28 02:23:08;;;;;;;0.68;0.60;;;;;;;13.34;63.11;99095.66;2082881;28;20525;-48
2022/11/28 02:24:53;;;;;;;0.43;0.43;;;;;;;13.30;63.29;99094.31;2083058;28;20067;-46
2022/11/28 02:26:30;;;;;;;0.38;0.38;;;;;;;13.25;63.50;99091.25;2064915;28;20061;-45
2022/11/28 02:28:07;;;;;;;0.55;0.55;;;;;;;13.25;63.37;99086.75;2044117;28;20053;-48
2022/11/28 02:29:54;;;;;;;0.40;0.40;;;;;;;13.25;63.35;99083.28;2059411;28;20077;-46
2022/11/28 02:31:11;;;;;;;0.28;0.28;;;;;;;13.26;63.35;99082.28;2027379;29;20435;-47
2022/11/28 02:32:21;;;;;;;0.50;0.50;;;;;;;13.29;63.30;99089.97;2074879;28;20045;-47
2022/11/28 02:33:28;;;;;;;0.38;0.38;;;;;;;13.31;63.36;99082.66;2077522;28;20076;-49
2022/11/28 02:34:37;;;;;;;0.85;0.50;;;;;;;13.31;63.05;99088.00;2083576;28;20048;-45
2022/11/28 02:35:49;;;;;;;0.50;0.50;;;;;;;13.33;63.06;99086.84;2082180;28;20056;-47
2022/11/28 02:36:58;;;;;;;0.50;0.50;;;;;;;13.32;63.04;99087.03;2082534;28;20044;-46
2022/11/28 02:38:09;;;;;;;0.85;0.40;;;;;;;13.31;63.12;99080.00;2081852;28;20106;-48
2022/11/28 02:39:16;;;;;;;0.40;0.38;;;;;;;13.31;63.13;99080.81;2081861;28;20056;-46
2022/11/28 02:40:24;;;;;;;0.40;0.40;;;;;;;13.31;63.13;99088.81;2081465;28;20036;-46
2022/11/28 02:41:33;;;;;;;0.65;0.65;;;;;;;13.32;63.14;99084.34;2077438;28;20052;-47
2022/11/28 02:42:48;;;;;;;0.88;0.50;;;;;;;13.32;63.00;99081.69;2077769;28;20684;-47
2022/11/28 02:43:55;;;;;;;0.50;0.50;;;;;;;13.32;63.12;99082.53;2081268;28;20041;-49
2022/11/28 02:45:07;;;;;;;0.60;0.55;;;;;;;13.34;62.88;99082.34;2083108;28;20416;-46
2022/11/28 02:46:13;;;;;;;0.57;0.50;;;;;;;13.31;63.03;99072.84;2082065;28;20049;-47
2022/11/28 02:47:23;;;;;;;0.63;0.40;;;;;;;13.30;63.08;99079.16;2083616;28;20052;-46
2022/11/28 02:48:28;;;;;;;0.70;0.70;;;;;;;13.30;62.95;99078.34;2075464;28;20045;-46
2022/11/28 02:49:36;;;;;;;0.30;0.30;;;;;;;13.32;63.11;99079.84;2076281;28;20075;-46
2022/11/28 02:50:41;;;;;;;1.02;0.75;;;;;;;13.33;63.17;99081.50;2080749;28;20049;-46
2022/11/28 02:51:47;;;;;;;2.15;0.68;;;;;;;13.33;63.11;99083.34;2079117;28;20083;-46
2022/11/28 02:52:52;;;;;;;0.35;0.30;;;;;;;13.33;62.86;99084.19;2082065;28;20041;-47
2022/11/28 02:53:55;;;;;;;0.43;0.40;;;;;;;13.36;62.93;99083.03;2078386;28;23662;-44
2022/11/28 02:54:57;;;;;;;0.70;0.70;;;;;;;13.35;62.96;99074.22;2080539;28;20064;-46
2022/11/28 02:56:00;;;;;;;0.88;0.80;;;;;;;13.37;62.84;99074.03;2081127;28;20053;-44
2022/11/28 02:57:01;;;;;;;1.75;0.73;;;;;;;13.36;62.91;99070.53;2082525;28;20053;-46
2022/11/28 02:58:03;;;;;;;0.40;0.40;;;;;;;13.35;63.03;99065.38;2082509;28;20626;-46
2022/11/28 02:59:17;;;;;;;0.52;0.47;;;;;;;13.34;62.93;99069.03;2082471;28;20539;-45
2022/11/28 03:00:29;;;;;;;0.68;0.63;;;;;;;13.31;63.01;99067.50;2082805;28;20052;-46
2022/11/28 03:01:33;;;;;;;0.77;0.60;;;;;;;13.31;63.09;99074.66;2082019;28;20037;-45
2022/11/28 03:02:37;;;;;;;0.60;0.60;;;;;;;13.33;62.99;99073.53;2083604;28;20041;-46
2022/11/28 03:04:17;;;;;;;0.47;0.35;;;;;;;13.28;63.06;99075.81;2083255;28;20045;-46
2022/11/28 03:05:23;;;;;;;0.70;0.50;;;;;;;13.27;63.23;99079.50;2056232;28;20710;-45
2022/11/28 03:06:37;;;;;;;0.50;0.50;;;;;;;13.27;63.04;99068.00;2078923;28;20421;-47
2022/11/28 03:07:57;;;;;;;0.70;0.68;;;;;;;13.26;63.18;99066.31;2074255;28;20589;-45
2022/11/28 03:09:14;;;;;;;0.60;0.60;;;;;;;13.25;63.01;99065.44;2076950;28;20079;-45
2022/11/28 03:10:27;;;;;;;0.95;0.60;;;;;;;13.26;63.09;99064.50;2079057;28;20040;-45
2022/11/28 03:11:45;;;;;;;0.50;0.40;;;;;;;13.26;63.28;99066.31;2076172;28;20213;-48
2022/11/28 03:12:54;;;;;;;0.52;0.40;;;;;;;13.27;63.13;99060.00;2080681;28;20055;-45
2022/11/28 03:14:02;;;;;;;0.80;0.70;;;;;;;13.27;63.19;99060.84;2081083;28;20063;-47
2022/11/28 03:15:06;;;;;;;0.28;0.28;;;;;;;13.27;63.11;99062.69;2082481;28;20102;-47
2022/11/28 03:16:17;;;;;;;0.63;0.60;;;;;;;13.26;63.03;99067.19;2081743;28;20425;-44
2022/11/28 03:17:26;;;;;;;0.45;0.45;;;;;;;13.29;62.92;99066.84;2081478;28;20489;-43
2022/11/28 03:18:33;;;;;;;0.75;0.73;;;;;;;13.29;62.93;99066.84;2082432;28;20041;-45
2022/11/28 03:19:39;;;;;;;0.57;0.57;;;;;;;13.31;62.96;99069.34;2080846;28;20620;-43
2022/11/28 03:20:46;;;;;;;0.75;0.52;;;;;;;13.30;63.05;99070.34;2083081;28;20484;-47
2022/11/28 03:21:58;;;;;;;0.75;0.57;;;;;;;13.30;62.96;99068.50;2073518;28;20670;-44
2022/11/28 03:23:10;;;;;;;0.50;0.50;;;;;;;13.28;62.98;99059.84;2078115;28;20060;-46
2022/11/28 03:24:17;;;;;;;0.40;0.38;;;;;;;13.30;62.92;99062.34;2073474;28;20049;-48
2022/11/28 03:25:25;;;;;;;1.15;0.73;;;;;;;13.27;62.87;99063.50;2080213;28;20044;-44
2022/11/28 03:26:36;;;;;;;0.40;0.40;;;;;;;13.27;62.76;99057.34;2081562;28;20126;-45
2022/11/28 03:27:44;;;;;;;0.70;0.57;;;;;;;13.27;63.05;99062.69;2075410;28;20052;-43
2022/11/28 03:28:54;;;;;;;1.15;0.50;;;;;;;13.27;63.06;99057.34;2078310;28;20580;-45
2022/11/28 03:29:58;;;;;;;0.50;0.50;;;;;;;13.27;63.14;99057.34;2071964;28;20056;-45
2022/11/28 03:31:03;;;;;;;0.30;0.30;;;;;;;13.29;62.97;99066.84;2077639;28;20513;-45
2022/11/28 03:32:08;;;;;;;1.95;0.75;;;;;;;13.27;63.03;99058.19;2077527;28;20045;-47
2022/11/28 03:33:13;;;;;;;0.63;0.63;;;;;;;13.26;62.88;99056.53;2082994;28;20519;-45
2022/11/28 03:34:20;;;;;;;0.30;0.30;;;;;;;13.26;62.97;99050.34;2080397;28;20614;-48
2022/11/28 03:35:26;;;;;;;1.00;0.85;;;;;;;13.26;63.05;99061.00;2082831;28;20044;-47
2022/11/28 03:36:31;;;;;;;0.43;0.40;;;;;;;13.25;63.07;99049.47;2081477;28;20049;-46
2022/11/28 03:37:37;;;;;;;1.15;0.80;;;;;;;13.29;63.12;99058.00;2080056;28;20084;-47
2022/11/28 03:38:43;;;;;;;0.60;0.60;;;;;;;13.28;62.94;99057.16;2076669;28;20578;-46
2022/11/28 03:39:50;;;;;;;0.50;0.50;;;;;;;13.27;62.82;99054.69;2079466;28;20037;-47
2022/11/28 03:40:55;;;;;;;0.43;0.43;;;;;;;13.26;62.99;99051.19;2075248;28;20056;-46
2022/11/28 03:42:00;;;;;;;1.10;0.75;;;;;;;13.25;63.09;99046.81;2074811;28;20086;-46
2022/11/28 03:43:04;;;;;;;0.60;0.52;;;;;;;13.26;63.01;99048.53;2080958;28;20764;-45
2022/11/28 03:44:11;;;;;;;0.60;0.50;;;;;;;13.25;62.97;99049.47;2081622;28;20131;-47
2022/11/28 03:45:16;;;;;;;0.40;0.40;;;;;;;13.24;63.09;99044.31;2083030;28;20409;-46
2022/11/28 03:46:22;;;;;;;0.70;0.63;;;;;;;13.24;63.01;99041.66;2081725;28;20060;-46
2022/11/28 03:47:27;;;;;;;0.88;0.80;;;;;;;13.27;62.90;99041.38;2082564;28;20045;-45
2022/11/28 03:48:33;;;;;;;0.63;0.63;;;;;;;13.26;63.04;99040.53;2081433;28;20052;-49
2022/11/28 03:49:39;;;;;;;0.45;0.45;;;;;;;13.25;62.90;99044.16;2082133;28;20060;-45
2022/11/28 03:50:45;;;;;;;0.25;0.22;;;;;;;13.28;62.84;99040.34;2081694;28;20048;-46
2022/11/28 03:51:52;;;;;;;0.68;0.65;;;;;;;13.28;63.11;99045.69;2081087;28;20053;-47
2022/11/28 03:53:00;;;;;;;0.52;0.50;;;;;;;13.26;62.95;99042.34;2080596;28;20051;-47
2022/11/28 03:54:04;;;;;;;0.65;0.52;;;;;;;13.24;62.96;99039.81;2071417;28;20416;-46
2022/11/28 03:55:12;;;;;;;0.93;0.70;;;;;;;13.25;62.94;99040.66;2075292;28;20052;-47
2022/11/28 03:56:18;;;;;;;0.40;0.40;;;;;;;13.25;63.08;99030.81;2079983;28;20048;-46
2022/11/28 03:57:24;;;;;;;0.30;0.30;;;;;;;13.26;63.01;99026.34;2077566;28;20056;-47
2022/11/28 03:58:30;;;;;;;0.43;0.40;;;;;;;13.24;62.99;99031.81;2081588;28;20053;-46
2022/11/28 03:59:34;;;;;;;0.52;0.40;;;;;;;13.25;62.95;99025.50;2080617;28;20055;-46
2022/11/28 04:00:44;;;;;;;0.30;0.30;;;;;;;13.23;62.78;99024.81;2080973;28;20041;-46
2022/11/28 04:01:53;;;;;;;0.30;0.30;;;;;;;13.23;63.04;99023.97;2081777;28;20637;-45
2022/11/28 04:03:03;;;;;;;0.90;0.60;;;;;;;13.21;63.00;99021.50;2081752;28;20053;-46
2022/11/28 04:04:16;;;;;;;0.40;0.40;;;;;;;13.18;63.09;99017.31;2082421;28;20151;-47
2022/11/28 04:05:26;;;;;;;0.47;0.47;;;;;;;13.21;63.05;99013.50;2082849;28;20045;-46
2022/11/28 04:06:35;;;;;;;0.52;0.50;;;;;;;13.21;63.02;99016.16;2081681;28;20139;-46
2022/11/28 04:07:41;;;;;;;0.55;0.40;;;;;;;13.19;62.93;99018.97;2077454;28;20048;-45
2022/11/28 04:08:48;;;;;;;0.35;0.32;;;;;;;13.20;63.00;99022.47;2072715;28;20063;-45
2022/11/28 04:09:57;;;;;;;0.65;0.65;;;;;;;13.18;63.02;99019.16;2075281;28;20061;-46
2022/11/28 04:11:07;;;;;;;0.60;0.50;;;;;;;13.21;63.05;99018.84;2080058;28;22496;-45
2022/11/28 04:12:13;;;;;;;0.57;0.57;;;;;;;13.18;63.07;99012.00;2082418;28;20981;-46
2022/11/28 04:13:21;;;;;;;0.93;0.73;;;;;;;13.22;63.02;99022.31;2076924;28;20051;-46
2022/11/28 04:14:28;;;;;;;0.60;0.60;;;;;;;13.22;63.02;99017.00;2079516;28;22486;-45
2022/11/28 04:15:37;;;;;;;0.88;0.73;;;;;;;13.22;63.05;99012.50;2080632;28;20128;-46
2022/11/28 04:16:46;;;;;;;0.40;0.32;;;;;;;13.22;62.95;99009.00;2078951;28;20802;-48
2022/11/28 04:17:55;;;;;;;0.40;0.40;;;;;;;13.20;63.00;99006.50;2080894;28;20688;-47
2022/11/28 04:19:01;;;;;;;0.43;0.40;;;;;;;13.17;63.15;99004.16;2081522;28;20049;-46
2022/11/28 04:20:09;;;;;;;0.70;0.60;;;;;;;13.19;63.04;99003.00;2079969;28;20557;-48
2022/11/28 04:21:18;;;;;;;0.30;0.30;;;;;;;13.18;62.98;99012.00;2081622;28;20056;-47
2022/11/28 04:22:24;;;;;;;0.93;0.60;;;;;;;13.18;62.98;99005.84;2078532;28;20053;-46
2022/11/28 04:23:27;;;;;;;0.60;0.57;;;;;;;13.19;63.01;99010.16;2077635;28;20638;-46
2022/11/28 04:24:33;;;;;;;0.80;0.80;;;;;;;13.19;63.11;99005.66;2078542;28;20045;-48
2022/11/28 04:25:38;;;;;;;0.50;0.50;;;;;;;13.18;62.95;99001.34;2082814;28;20072;-46
2022/11/28 04:26:45;;;;;;;0.68;0.60;;;;;;;13.19;62.98;98997.66;2081367;28;20045;-46
2022/11/28 04:27:51;;;;;;;0.80;0.60;;;;;;;13.18;63.06;98996.00;2080621;28;20049;-46
2022/11/28 04:28:55;;;;;;;0.77;0.57;;;;;;;13.17;63.02;98996.97;2072352;28;20094;-47
2022/11/28 04:30:00;;;;;;;0.52;0.40;;;;;;;13.19;63.01;98999.50;2078608;28;20049;-48
2022/11/28 04:31:04;;;;;;;0.50;0.50;;;;;;;13.21;62.92;99000.19;2081301;28;20111;-47
2022/11/28 04:32:07;;;;;;;0.73;0.50;;;;;;;13.19;62.78;99000.34;2082125;28;20488;-47
2022/11/28 04:33:11;;;;;;;0.32;0.32;;;;;;;13.21;62.87;98991.38;2081710;28;20080;-48
2022/11/28 04:34:17;;;;;;;0.63;0.50;;;;;;;13.19;62.81;98994.19;2081892;28;20057;-46
2022/11/28 04:35:26;;;;;;;0.80;0.60;;;;;;;13.17;62.97;98996.16;2079910;28;20049;-47
2022/11/28 04:36:31;;;;;;;0.73;0.50;;;;;;;13.18;63.01;98995.19;2073515;28;20626;-48
2022/11/28 04:37:34;;;;;;;0.55;0.55;;;;;;;13.21;62.92;99002.03;2078418;28;20060;-48
2022/11/28 04:38:39;;;;;;;0.60;0.50;;;;;;;13.18;62.88;98995.19;2076101;28;20067;-47
2022/11/28 04:39:44;;;;;;;0.93;0.60;;;;;;;13.16;63.08;98992.66;2077133;28;20053;-45
2022/11/28 04:40:51;;;;;;;0.50;0.50;;;;;;;13.16;63.00;98995.31;2077108;28;20041;-45
2022/11/28 04:41:54;;;;;;;0.80;0.55;;;;;;;13.18;62.94;98996.00;2080204;28;20056;-47
2022/11/28 04:42:59;;;;;;;0.50;0.50;;;;;;;13.16;62.97;98992.66;2078503;28;20108;-46
2022/11/28 04:44:06;;;;;;;1.08;0.95;;;;;;;13.17;62.63;98989.00;2081605;28;20057;-48
2022/11/28 04:45:13;;;;;;;0.70;0.60;;;;;;;13.18;62.87;98993.34;2082511;28;20051;-46
2022/11/28 04:46:18;;;;;;;0.52;0.52;;;;;;;13.16;62.94;98992.66;2074997;28;20547;-47
2022/11/28 04:47:21;;;;;;;1.05;0.40;;;;;;;13.16;63.02;98992.66;2081846;28;20681;-48
2022/11/28 04:48:22;;;;;;;0.95;0.60;;;;;;;13.18;62.88;99000.50;2082937;28;20048;-48
2022/11/28 04:49:25;;;;;;;;;;;;;;;13.05;63.33;98995.59;2084170;28;20700;-46
2022/11/28 04:50:30;;;;;;;1.20;0.80;;;;;;;13.08;63.28;98995.28;2081138;28;20388;-46
2022/11/28 04:51:42;;;;;;;1.10;0.50;;;;;;;13.12;63.09;99001.97;2078019;28;20049;-46
2022/11/28 04:52:50;;;;;;;1.00;0.70;;;;;;;13.14;63.02;98994.66;2080150;28;20048;-45
2022/11/28 04:54:00;;;;;;;1.10;0.75;;;;;;;13.15;63.00;98993.66;2083356;28;20744;-48
2022/11/28 04:55:09;;;;;;;0.50;0.50;;;;;;;13.13;63.17;98994.81;2083213;28;20049;-46
2022/11/28 04:56:17;;;;;;;0.93;0.70;;;;;;;13.13;63.07;98992.97;2081418;28;20049;-46
2022/11/28 04:57:23;;;;;;;0.50;0.50;;;;;;;13.13;63.05;98986.81;2082664;28;20068;-46
2022/11/28 04:58:31;;;;;;;0.60;0.57;;;;;;;13.12;63.12;98991.31;2082946;28;20044;-46
2022/11/28 04:59:32;;;;;;;0.80;0.60;;;;;;;13.15;63.00;98985.69;2084098;28;20049;-46
2022/11/28 05:00:34;;;;;;;;;;;;;;;13.04;63.12;98988.63;2083331;28;20041;-46
2022/11/28 05:01:37;;;;;;;0.60;0.52;;;;;;;13.09;63.22;98989.00;2084435;28;19929;-47
2022/11/28 05:02:42;;;;;;;0.55;0.50;;;;;;;13.11;63.23;98986.16;2083382;28;20060;-46
2022/11/28 05:03:43;;;;;;;0.60;0.47;;;;;;;13.10;63.16;98985.31;2084037;28;20401;-48
2022/11/28 05:04:45;;;;;;;1.38;0.45;;;;;;;13.13;63.11;98990.31;2082623;28;20055;-48
2022/11/28 05:05:48;;;;;;;0.40;0.40;;;;;;;13.14;63.05;98991.97;2081295;28;20056;-48
2022/11/28 05:07:01;;;;;;;0.82;0.52;;;;;;;13.09;62.92;98994.31;2077873;28;20041;-48
2022/11/28 05:08:02;;;;;;;1.10;0.65;;;;;;;13.13;63.04;98987.66;2080722;28;20986;-46
2022/11/28 05:09:04;;;;;;;;;;;;;;;13.01;63.39;98986.28;2082821;28;20056;-46
2022/11/28 05:10:06;;;;;;;0.60;0.40;;;;;;;13.06;63.31;98996.44;2083377;28;20754;-46
2022/11/28 05:11:08;;;;;;;2.25;0.60;;;;;;;13.10;63.19;98990.66;2082869;28;20053;-47
2022/11/28 05:12:09;;;;;;;1.10;0.52;;;;;;;13.10;62.98;98990.66;2083362;28;20056;-47
2022/11/28 05:13:11;;;;;;;;;;;;;;;13.02;63.36;98995.94;2084443;28;20044;-47
2022/11/28 05:14:11;;;;;;;0.73;0.70;;;;;;;13.03;63.18;98991.44;2082476;28;19931;-46
2022/11/28 05:15:17;;;;;;;;;;;;;;;12.94;63.68;98991.38;2084408;28;20063;-46